Freeman, SD

4:32 AM CDT on October 25, 2014 (GMT -0500)
KSDFREEM4 | Change Station
CLOSE
Current Station
Personal Weather Station
Location: FREEMAN, SD
Elevation: 1440 ft
Nearby Weather Stations

Elev 1440 ft 43.43 °N, 97.48 °W | Updated 2 minutes ago

Clear
Clear
49.5 °F
Feels Like 48 °F
N
5.0
Wind Variable Wind from NNW
Gusts 14.0 mph

Today
High -- | Low -- °F
--% Chance of Precip.
Yesterday
High -- | Low -- °F
Precip. -- in
7:56 AM 6:30 PM
New Moon, 2% visible
Pressure 30.08 in
Visibility 10.0 miles
Clouds Clear
Windchill 48 °F
Dew Point 42 °F
Humidity 74%
Rainfall 0.00 in
Snow Depth Not available.
UV 0 out of 12
Pollen 1.90 out of 12
Air Quality Not available.
Flu Activity Sporadic
METAR KYKN 250915Z AUTO 30007KT 10SM CLR 08/04 A3008 RMK AO1

More Conditions Fewer Conditions

Pressure 30.08 in
Visibility 10.0 miles
Clouds Clear
Windchill 48 °F
Dew Point 42 °F
Humidity 74%
Rainfall 0.00 in
Snow Depth Not available.
UV 0 out of 12
Pollen 1.90 out of 12
Air Quality Not available.
Flu Activity Sporadic
METAR KYKN 250915Z AUTO 30007KT 10SM CLR 08/04 A3008 RMK AO1

More Conditions Fewer Conditions

10-Day Weather Forecast

Almanac

Astronomy

Oct. 25, 2014 Rise Set
Actual Time 7:56 AM CDT 6:30 PM CDT
Civil Twilight 7:26 AM CDT 7:00 PM CDT
Nautical Twilight 6:53 AM CDT 7:33 PM CDT
Astronomical Twilight 6:20 AM CDT 8:06 PM CDT
Moon 9:38 AM CDT 7:52 PM CDT
Length of Visible Light 11h 33m
Length of Day
10h 34m
Tomorrow will be 2m 44s shorter.
New Moon, 2% of the Moon is Illuminated
Today
New Moon
Oct 30
First Quarter
Nov 6
Full
Nov 14
Last Quarter
Nov 22
New

Today's Extremes

State Highs State Lows

Community

WunderPhotos

Upload Photos

1,764,796 photos uploaded!

Nearby

Snow Depth

Station Depth Elevation
Blind Park 0 in 6890 ft

Earthquake Activity

City Distance Mag. Time & Date
No recent earthquake activity has been reported nearby.
Minimum magnitude displayed is 2.5.

Coastal Water Temperatures

Place Temperature
No Stations Reporting

Nearby Weather Stations